createdAt,value
2019-04-07T00:00:12.675Z,11.35
2019-04-07T00:01:12.960Z,11.26
2019-04-07T00:02:13.050Z,11.37
2019-04-07T00:03:12.873Z,11.35
2019-04-07T00:04:12.620Z,11.41
2019-04-07T00:05:14.691Z,11.44
2019-04-07T00:06:12.624Z,11.38
2019-04-07T00:07:12.583Z,11.30
2019-04-07T00:08:12.576Z,11.27
2019-04-07T00:09:12.575Z,11.23
2019-04-07T00:10:12.790Z,11.07
2019-04-07T00:11:12.563Z,11.08
2019-04-07T00:12:12.602Z,10.89
2019-04-07T00:13:12.514Z,10.90
2019-04-07T00:14:12.641Z,10.95
2019-04-07T00:15:12.491Z,10.84
2019-04-07T00:16:12.503Z,10.82
2019-04-07T00:17:12.483Z,10.80
2019-04-07T00:18:12.469Z,10.77
2019-04-07T00:19:12.452Z,10.75
2019-04-07T00:20:12.519Z,10.67
2019-04-07T00:21:12.538Z,10.71
2019-04-07T00:22:12.738Z,10.71
2019-04-07T00:23:13.011Z,10.53
2019-04-07T00:24:12.412Z,10.61
2019-04-07T00:25:12.939Z,10.49
2019-04-07T00:26:12.803Z,10.46
2019-04-07T00:27:12.372Z,10.49
2019-04-07T00:28:12.371Z,10.46
2019-04-07T00:29:12.342Z,10.43
2019-04-07T00:30:12.335Z,10.48
2019-04-07T00:31:12.333Z,10.49
2019-04-07T00:32:12.326Z,10.49
2019-04-07T00:33:12.302Z,10.53
2019-04-07T00:34:12.307Z,10.51
2019-04-07T00:35:22.133Z,10.57
2019-04-07T00:36:13.276Z,10.55
2019-04-07T00:37:12.861Z,10.76
2019-04-07T00:38:12.733Z,10.76
2019-04-07T00:39:12.243Z,10.95
2019-04-07T00:40:12.222Z,10.90
2019-04-07T00:41:12.227Z,10.97
2019-04-07T00:42:12.203Z,10.83
2019-04-07T00:43:12.195Z,10.94
2019-04-07T00:44:12.522Z,10.84
2019-04-07T00:45:12.179Z,10.95
2019-04-07T00:46:12.448Z,10.82
2019-04-07T00:47:12.152Z,10.84
2019-04-07T00:48:12.330Z,10.87
2019-04-07T00:49:13.139Z,10.84
2019-04-07T00:50:12.116Z,10.80
2019-04-07T00:51:12.417Z,10.84
2019-04-07T00:52:12.092Z,10.83
2019-04-07T00:53:12.084Z,10.71
2019-04-07T00:54:12.615Z,10.65
2019-04-07T00:55:12.065Z,10.65
2019-04-07T00:56:12.487Z,10.59
2019-04-07T00:57:12.051Z,10.59
2019-04-07T00:58:12.568Z,10.69
2019-04-07T00:59:12.021Z,10.59
2019-04-07T01:00:12.004Z,10.69
2019-04-07T01:01:12.015Z,10.69
2019-04-07T01:02:12.282Z,10.59
2019-04-07T01:03:12.293Z,10.59
2019-04-07T01:04:12.266Z,10.58
2019-04-07T01:05:12.658Z,10.68
2019-04-07T01:06:11.962Z,10.64
2019-04-07T01:07:12.248Z,10.59
2019-04-07T01:08:11.921Z,10.62
2019-04-07T01:09:12.365Z,10.48
2019-04-07T01:10:11.917Z,10.49
2019-04-07T01:11:12.288Z,10.57
2019-04-07T01:12:11.879Z,10.48
2019-04-07T01:13:11.927Z,10.48
2019-04-07T01:14:12.362Z,10.45
2019-04-07T01:15:12.495Z,10.49
2019-04-07T01:16:11.998Z,10.33
2019-04-07T01:17:11.827Z,10.23
2019-04-07T01:18:11.812Z,10.21
2019-04-07T01:19:12.419Z,10.12
2019-04-07T01:20:11.803Z,10.09
2019-04-07T01:21:11.784Z,10.12
2019-04-07T01:22:11.792Z,10.09
2019-04-07T01:23:11.758Z,10.17
2019-04-07T01:24:12.309Z,10.07
2019-04-07T01:25:11.740Z,10.10
2019-04-07T01:26:11.729Z,10.10
2019-04-07T01:27:11.735Z,10.07
2019-04-07T01:28:12.077Z,10.00
2019-04-07T01:29:11.698Z,9.90
2019-04-07T01:30:11.789Z,9.87
2019-04-07T01:31:12.201Z,9.94
2019-04-07T01:32:11.687Z,9.92
2019-04-07T01:33:11.768Z,9.99
2019-04-07T01:34:11.771Z,9.94
2019-04-07T01:35:12.309Z,9.91
2019-04-07T01:36:11.620Z,9.77
2019-04-07T01:37:12.171Z,9.80
2019-04-07T01:38:11.593Z,9.63
2019-04-07T01:39:11.971Z,9.64
2019-04-07T01:40:11.574Z,9.49
2019-04-07T01:41:12.135Z,9.52
2019-04-07T01:42:11.617Z,9.44
2019-04-07T01:43:11.548Z,9.47
2019-04-07T01:44:11.523Z,9.40
2019-04-07T01:45:11.583Z,9.37
2019-04-07T01:46:11.505Z,9.30
2019-04-07T01:47:11.517Z,9.29
2019-04-07T01:48:11.490Z,9.19
2019-04-07T01:49:11.756Z,9.09
2019-04-07T01:50:12.007Z,9.08
2019-04-07T01:51:11.462Z,9.02
2019-04-07T01:52:11.792Z,9.02
2019-04-07T01:53:11.432Z,8.90
2019-04-07T01:54:11.700Z,8.89
2019-04-07T01:55:11.415Z,8.93
2019-04-07T01:56:11.835Z,8.84
2019-04-07T01:57:11.407Z,8.86
2019-04-07T01:58:11.959Z,8.87
2019-04-07T01:59:12.082Z,8.86
2019-04-07T02:00:11.364Z,8.87
2019-04-07T02:01:12.034Z,8.84
2019-04-07T02:02:11.339Z,8.87
2019-04-07T02:03:11.321Z,8.77
2019-04-07T02:04:11.617Z,8.68
2019-04-07T02:05:11.313Z,8.60
2019-04-07T02:06:11.752Z,8.63
2019-04-07T02:07:11.705Z,8.49
2019-04-07T02:08:11.962Z,8.49
2019-04-07T02:09:11.253Z,8.38
2019-04-07T02:10:12.007Z,8.44
2019-04-07T02:11:11.369Z,8.38
2019-04-07T02:12:11.578Z,8.34
2019-04-07T02:13:11.210Z,8.31
2019-04-07T02:14:11.260Z,8.24
2019-04-07T02:15:11.318Z,8.11
2019-04-07T02:16:11.432Z,8.18
2019-04-07T02:17:11.949Z,8.08
2019-04-07T02:18:11.382Z,8.08
2019-04-07T02:19:11.254Z,8.18
2019-04-07T02:20:11.279Z,8.08
2019-04-07T02:21:11.124Z,8.08
2019-04-07T02:22:11.139Z,8.09
2019-04-07T02:23:11.676Z,7.98
2019-04-07T02:24:11.447Z,8.06
2019-04-07T02:25:11.076Z,7.99
2019-04-07T02:26:11.432Z,8.03
2019-04-07T02:27:11.074Z,7.98
2019-04-07T02:28:11.057Z,7.99
2019-04-07T02:29:11.683Z,8.01
2019-04-07T02:30:12.897Z,7.98
2019-04-07T02:31:11.007Z,8.01
2019-04-07T02:32:11.052Z,8.03
2019-04-07T02:33:10.992Z,8.05
2019-04-07T02:34:11.830Z,8.06
2019-04-07T02:35:10.973Z,7.96
2019-04-07T02:36:21.006Z,8.02
2019-04-07T02:37:12.065Z,7.91
2019-04-07T02:38:14.595Z,7.85
2019-04-07T02:39:11.945Z,7.91
2019-04-07T02:40:11.815Z,7.84
2019-04-07T02:41:10.894Z,7.88
2019-04-07T02:42:11.091Z,7.88
2019-04-07T02:43:10.893Z,7.74
2019-04-07T02:44:10.918Z,7.80
2019-04-07T02:45:11.075Z,7.64
2019-04-07T02:46:11.141Z,7.74
2019-04-07T02:47:10.825Z,7.61
2019-04-07T02:48:10.839Z,7.64
2019-04-07T02:49:10.937Z,7.61
2019-04-07T02:50:10.829Z,7.58
2019-04-07T02:51:10.791Z,7.55
2019-04-07T02:52:11.180Z,7.51
2019-04-07T02:53:11.057Z,7.51
2019-04-07T02:54:10.758Z,7.47
2019-04-07T02:55:10.958Z,7.53
2019-04-07T02:56:10.736Z,7.55
2019-04-07T02:57:10.731Z,7.58
2019-04-07T02:58:10.732Z,7.43
2019-04-07T02:59:10.692Z,7.50
2019-04-07T03:00:11.662Z,7.47
2019-04-07T03:01:11.474Z,7.44
2019-04-07T03:02:10.668Z,7.37
2019-04-07T03:03:10.903Z,7.39
2019-04-07T03:04:11.623Z,7.31
2019-04-07T03:05:11.790Z,7.31
2019-04-07T03:06:10.620Z,7.39
2019-04-07T03:07:11.267Z,7.25
2019-04-07T03:08:10.627Z,7.33
2019-04-07T03:09:10.953Z,7.22
2019-04-07T03:10:10.870Z,7.26
2019-04-07T03:11:10.733Z,7.25
2019-04-07T03:12:10.556Z,7.15
2019-04-07T03:13:10.561Z,7.23
2019-04-07T03:14:10.883Z,7.18
2019-04-07T03:15:11.130Z,7.21
2019-04-07T03:16:10.639Z,7.14
2019-04-07T03:17:10.498Z,7.15
2019-04-07T03:18:10.514Z,7.10
2019-04-07T03:19:10.478Z,7.05
2019-04-07T03:20:10.474Z,6.89
2019-04-07T03:21:10.457Z,6.90
2019-04-07T03:22:11.103Z,6.80
2019-04-07T03:23:10.446Z,6.82
2019-04-07T03:24:11.146Z,6.72
2019-04-07T03:25:11.171Z,6.80
2019-04-07T03:26:11.119Z,6.77
2019-04-07T03:27:10.412Z,6.71
2019-04-07T03:28:10.406Z,6.71
2019-04-07T03:29:10.370Z,6.59
2019-04-07T03:30:11.543Z,6.67
2019-04-07T03:31:12.272Z,6.72
2019-04-07T03:32:15.858Z,6.68
2019-04-07T03:33:14.152Z,6.60
2019-04-07T03:34:13.394Z,6.49
2019-04-07T03:35:12.391Z,6.46
2019-04-07T03:36:13.255Z,6.43
2019-04-07T03:37:22.920Z,6.39
2019-04-07T03:38:12.091Z,6.38
2019-04-07T03:39:10.847Z,6.39
2019-04-07T03:40:10.253Z,6.38
2019-04-07T03:41:10.241Z,6.32
2019-04-07T03:42:10.725Z,6.26
2019-04-07T03:43:10.306Z,6.46
2019-04-07T03:44:10.204Z,6.32
2019-04-07T03:45:10.191Z,6.38
2019-04-07T03:46:10.186Z,6.41
2019-04-07T03:47:10.345Z,6.39
2019-04-07T03:48:10.320Z,6.43
2019-04-07T03:49:10.152Z,6.43
2019-04-07T03:50:10.254Z,6.34
2019-04-07T03:51:11.052Z,6.28
2019-04-07T03:52:10.128Z,6.25
2019-04-07T03:53:10.252Z,6.29
2019-04-07T03:54:10.241Z,6.20
2019-04-07T03:55:10.088Z,6.22
2019-04-07T03:56:10.268Z,6.22
2019-04-07T03:57:11.121Z,6.22
2019-04-07T03:58:10.060Z,6.17
2019-04-07T03:59:10.881Z,6.25
2019-04-07T04:00:10.492Z,6.10
2019-04-07T04:01:10.259Z,6.15
2019-04-07T04:02:10.952Z,6.09
2019-04-07T04:03:10.912Z,6.07
2019-04-07T04:04:10.000Z,5.98
2019-04-07T04:05:10.573Z,6.01
2019-04-07T04:06:10.596Z,5.98
2019-04-07T04:07:20.157Z,6.01
2019-04-07T04:08:11.302Z,6.10
2019-04-07T04:09:09.989Z,6.16
2019-04-07T04:10:09.939Z,6.22
2019-04-07T04:11:09.915Z,6.29
2019-04-07T04:12:10.436Z,6.20
2019-04-07T04:13:09.887Z,6.26
2019-04-07T04:14:09.910Z,6.22
2019-04-07T04:15:10.555Z,6.22
2019-04-07T04:16:10.529Z,6.16
2019-04-07T04:17:09.847Z,6.13
2019-04-07T04:18:09.838Z,5.99
2019-04-07T04:19:09.849Z,6.06
2019-04-07T04:20:10.555Z,5.97
2019-04-07T04:21:09.798Z,5.92
2019-04-07T04:22:09.790Z,5.94
2019-04-07T04:23:10.441Z,5.94
2019-04-07T04:24:09.775Z,5.84
2019-04-07T04:25:10.687Z,5.90
2019-04-07T04:26:09.742Z,5.74
2019-04-07T04:27:10.757Z,5.83
2019-04-07T04:28:09.736Z,5.76
2019-04-07T04:29:10.378Z,5.76
2019-04-07T04:30:10.830Z,5.74
2019-04-07T04:31:09.689Z,5.65
2019-04-07T04:32:09.685Z,5.67
2019-04-07T04:33:10.313Z,5.59
2019-04-07T04:34:09.956Z,5.49
2019-04-07T04:35:10.614Z,5.54
2019-04-07T04:36:09.889Z,5.47
2019-04-07T04:37:09.621Z,5.52
2019-04-07T04:38:10.268Z,5.44
2019-04-07T04:39:10.081Z,5.46
2019-04-07T04:40:09.588Z,5.52
2019-04-07T04:41:10.113Z,5.43
2019-04-07T04:42:10.390Z,5.46
2019-04-07T04:43:10.416Z,5.47
2019-04-07T04:44:10.162Z,5.47
2019-04-07T04:45:10.405Z,5.59
2019-04-07T04:46:11.359Z,5.54
2019-04-07T04:47:10.200Z,5.59
2019-04-07T04:48:09.496Z,5.64
2019-04-07T04:49:09.521Z,5.65
2019-04-07T04:50:09.962Z,5.77
2019-04-07T04:51:09.718Z,5.69
2019-04-07T04:52:09.484Z,5.70
2019-04-07T04:53:10.700Z,5.70
2019-04-07T04:54:10.933Z,5.67
2019-04-07T04:55:09.431Z,5.72
2019-04-07T04:56:09.712Z,5.67
2019-04-07T04:57:09.483Z,5.69
2019-04-07T04:58:10.007Z,5.72
2019-04-07T04:59:09.432Z,5.64
2019-04-07T05:00:10.303Z,5.62
2019-04-07T05:01:09.661Z,5.65
2019-04-07T05:02:10.582Z,5.67
2019-04-07T05:03:09.435Z,5.61
2019-04-07T05:04:10.010Z,5.65
2019-04-07T05:05:09.947Z,5.67
2019-04-07T05:06:10.039Z,5.69
2019-04-07T05:07:10.148Z,5.72
2019-04-07T05:08:09.484Z,5.70
2019-04-07T05:09:09.305Z,5.73
2019-04-07T05:10:10.102Z,5.69
2019-04-07T05:11:09.248Z,5.72
2019-04-07T05:12:09.365Z,5.74
2019-04-07T05:13:09.803Z,5.72
2019-04-07T05:14:09.235Z,5.81
2019-04-07T05:15:09.733Z,5.87
2019-04-07T05:16:09.219Z,5.84
2019-04-07T05:17:09.993Z,5.83
2019-04-07T05:18:09.773Z,5.92
2019-04-07T05:19:09.761Z,6.05
2019-04-07T05:20:09.189Z,6.22
2019-04-07T05:21:09.678Z,6.35
2019-04-07T05:22:09.129Z,6.53
2019-04-07T05:23:09.807Z,6.57
2019-04-07T05:24:09.301Z,6.75
2019-04-07T05:25:09.460Z,6.74
2019-04-07T05:26:09.092Z,6.87
2019-04-07T05:27:09.718Z,7.00
2019-04-07T05:28:09.084Z,7.10
2019-04-07T05:29:09.333Z,7.15
2019-04-07T05:30:09.052Z,7.23
2019-04-07T05:31:09.034Z,7.23
2019-04-07T05:32:09.602Z,7.41
2019-04-07T05:33:09.026Z,7.51
2019-04-07T05:34:09.071Z,7.74
2019-04-07T05:35:09.005Z,7.87
2019-04-07T05:36:08.976Z,8.13
2019-04-07T05:37:08.967Z,8.09
2019-04-07T05:38:09.407Z,8.20
2019-04-07T05:39:10.194Z,8.45
2019-04-07T05:40:09.143Z,8.54
2019-04-07T05:41:09.106Z,8.69
2019-04-07T05:42:09.203Z,8.87
2019-04-07T05:43:09.640Z,9.11
2019-04-07T05:44:08.895Z,9.21
2019-04-07T05:45:10.040Z,9.42
2019-04-07T05:46:09.112Z,9.58
2019-04-07T05:47:10.867Z,9.77
2019-04-07T05:48:08.836Z,9.90
2019-04-07T05:49:08.833Z,10.03
2019-04-07T05:50:08.826Z,10.10
2019-04-07T05:51:08.837Z,10.24
2019-04-07T05:52:09.584Z,10.41
2019-04-07T05:53:12.639Z,10.57
2019-04-07T05:54:12.212Z,10.75
2019-04-07T05:55:08.985Z,10.83
2019-04-07T05:56:08.753Z,10.97
2019-04-07T05:57:08.745Z,10.97
2019-04-07T05:58:08.731Z,10.98
2019-04-07T05:59:11.674Z,11.10
2019-04-07T06:00:11.125Z,11.27
2019-04-07T06:01:09.692Z,11.31
2019-04-07T06:02:08.976Z,11.37
2019-04-07T06:03:09.450Z,11.55
2019-04-07T06:04:08.921Z,11.67
2019-04-07T06:05:08.671Z,11.71
2019-04-07T06:06:09.358Z,11.77
2019-04-07T06:07:09.103Z,11.83
2019-04-07T06:08:22.401Z,12.02
2019-04-07T06:09:09.601Z,12.05
2019-04-07T06:10:09.042Z,12.17
2019-04-07T06:11:08.719Z,12.39
2019-04-07T06:12:09.791Z,12.39
2019-04-07T06:13:11.111Z,12.32
2019-04-07T06:14:08.553Z,12.53
2019-04-07T06:15:08.549Z,12.55
2019-04-07T06:16:08.526Z,12.76
2019-04-07T06:17:08.509Z,12.75
2019-04-07T06:18:08.507Z,12.88
2019-04-07T06:19:09.013Z,13.08
2019-04-07T06:20:12.040Z,13.20
2019-04-07T06:21:10.156Z,13.21
2019-04-07T06:22:08.669Z,13.39
2019-04-07T06:23:08.482Z,13.54
2019-04-07T06:24:08.974Z,13.46
2019-04-07T06:25:09.575Z,13.49
2019-04-07T06:26:11.340Z,13.54
2019-04-07T06:27:08.799Z,13.68
2019-04-07T06:28:08.692Z,13.71
2019-04-07T06:29:08.386Z,13.86
2019-04-07T06:30:08.530Z,14.04
2019-04-07T06:31:08.358Z,14.16
2019-04-07T06:32:10.056Z,14.31
2019-04-07T06:33:08.902Z,14.41
2019-04-07T06:34:10.490Z,14.59
2019-04-07T06:35:08.505Z,14.56
2019-04-07T06:36:08.368Z,14.66
2019-04-07T06:37:08.290Z,14.81
2019-04-07T06:38:08.943Z,14.85
2019-04-07T06:39:08.318Z,15.07
2019-04-07T06:40:08.982Z,15.10
2019-04-07T06:41:08.290Z,15.11
2019-04-07T06:42:08.525Z,14.85
2019-04-07T06:43:08.220Z,14.94
2019-04-07T06:44:13.273Z,15.18
2019-04-07T06:45:09.633Z,15.27
2019-04-07T06:46:08.307Z,15.63
2019-04-07T06:47:08.561Z,15.83
2019-04-07T06:48:09.214Z,15.39
2019-04-07T06:49:11.265Z,15.48
2019-04-07T06:50:08.575Z,15.69
2019-04-07T06:51:08.480Z,15.88
2019-04-07T06:52:08.310Z,15.60
2019-04-07T06:53:15.743Z,15.60
2019-04-07T06:54:09.102Z,15.55
2019-04-07T06:55:08.827Z,15.70
2019-04-07T06:56:08.871Z,15.65
2019-04-07T06:57:08.503Z,15.52
2019-04-07T06:58:08.418Z,15.48
2019-04-07T06:59:11.880Z,15.60
2019-04-07T07:00:10.160Z,15.62
2019-04-07T07:01:08.036Z,15.84
2019-04-07T07:02:08.638Z,15.85
2019-04-07T07:03:08.319Z,16.05
2019-04-07T07:04:10.897Z,16.12
2019-04-07T07:05:08.455Z,16.02
2019-04-07T07:06:08.540Z,15.91
2019-04-07T07:07:08.868Z,16.08
2019-04-07T07:08:08.486Z,16.18
2019-04-07T07:09:08.294Z,16.28
2019-04-07T07:10:08.304Z,16.09
2019-04-07T07:11:09.440Z,16.13
2019-04-07T07:12:19.258Z,16.09
2019-04-07T07:13:11.776Z,16.18
2019-04-07T07:14:09.573Z,16.03
2019-04-07T07:15:07.962Z,15.91
2019-04-07T07:16:10.439Z,16.06
2019-04-07T07:17:07.870Z,16.28
2019-04-07T07:18:08.021Z,16.49
2019-04-07T07:19:08.356Z,16.18
2019-04-07T07:20:07.818Z,16.00
2019-04-07T07:21:07.821Z,16.03
2019-04-07T07:22:12.708Z,16.40
2019-04-07T07:23:10.184Z,16.58
2019-04-07T07:24:07.784Z,16.58
2019-04-07T07:25:10.220Z,16.37
2019-04-07T07:26:08.181Z,16.36
2019-04-07T07:27:10.337Z,16.18
2019-04-07T07:28:11.430Z,16.31
2019-04-07T07:29:08.340Z,16.21
2019-04-07T07:30:17.509Z,16.31
2019-04-07T07:31:07.835Z,16.43
2019-04-07T07:32:08.218Z,16.64
2019-04-07T07:33:10.977Z,16.44
2019-04-07T07:34:10.146Z,16.29
2019-04-07T07:35:08.065Z,16.43
2019-04-07T07:36:09.179Z,16.76
2019-04-07T07:37:08.343Z,16.91
2019-04-07T07:38:07.647Z,16.82
2019-04-07T07:39:11.374Z,17.20
2019-04-07T07:40:09.783Z,17.66
2019-04-07T07:41:07.616Z,17.46
2019-04-07T07:42:08.227Z,17.28
2019-04-07T07:43:07.549Z,17.32
2019-04-07T07:44:08.930Z,17.30
2019-04-07T07:45:10.734Z,17.46
2019-04-07T07:46:08.747Z,17.56
2019-04-07T07:47:07.944Z,17.98
2019-04-07T07:48:07.524Z,18.18
2019-04-07T07:49:07.574Z,18.26
2019-04-07T07:50:08.188Z,18.28
2019-04-07T07:51:12.571Z,18.51
2019-04-07T07:52:08.579Z,18.57
2019-04-07T07:53:07.947Z,18.94
2019-04-07T07:54:07.434Z,19.22
2019-04-07T07:55:07.423Z,19.08
2019-04-07T07:56:11.458Z,19.01
2019-04-07T07:57:08.403Z,19.07
2019-04-07T07:58:07.405Z,19.44
2019-04-07T07:59:07.740Z,19.44
2019-04-07T08:00:08.341Z,19.41
2019-04-07T08:01:07.361Z,19.20
2019-04-07T08:02:08.605Z,18.85
2019-04-07T08:03:07.891Z,18.88
2019-04-07T08:04:07.352Z,19.39
2019-04-07T08:05:07.304Z,19.34
2019-04-07T08:06:08.405Z,19.38
2019-04-07T08:07:09.011Z,19.49
2019-04-07T08:08:07.370Z,19.63
2019-04-07T08:09:12.896Z,19.72
2019-04-07T08:10:08.554Z,20.21
2019-04-07T08:11:07.251Z,20.30
2019-04-07T08:12:07.340Z,20.37
2019-04-07T08:13:08.695Z,20.36
2019-04-07T08:14:07.828Z,20.49
2019-04-07T08:15:07.197Z,20.89
2019-04-07T08:16:09.774Z,21.17
2019-04-07T08:17:07.276Z,21.08
2019-04-07T08:18:08.435Z,20.59
2019-04-07T08:19:09.431Z,20.29
2019-04-07T08:20:08.194Z,20.56
2019-04-07T08:21:07.256Z,20.82
2019-04-07T08:22:07.905Z,21.07
2019-04-07T08:23:07.871Z,20.86
2019-04-07T08:24:08.046Z,20.93
2019-04-07T08:25:07.095Z,21.14
2019-04-07T08:26:07.186Z,21.20
2019-04-07T08:27:07.365Z,21.22
2019-04-07T08:28:08.160Z,21.19
2019-04-07T08:29:07.716Z,21.03
2019-04-07T08:30:11.773Z,20.86
2019-04-07T08:31:08.067Z,20.80
2019-04-07T08:32:07.688Z,20.93
2019-04-07T08:33:07.252Z,20.63
2019-04-07T08:34:07.754Z,20.77
2019-04-07T08:35:07.894Z,21.11
2019-04-07T08:36:11.133Z,20.78
2019-04-07T08:37:08.411Z,20.95
2019-04-07T08:38:06.977Z,21.17
2019-04-07T08:39:18.562Z,21.25
2019-04-07T08:40:08.229Z,21.45
2019-04-07T08:41:10.132Z,21.44
2019-04-07T08:42:10.674Z,21.63
2019-04-07T08:43:07.239Z,21.66
2019-04-07T08:44:07.071Z,21.70
2019-04-07T08:45:06.868Z,21.35
2019-04-07T08:46:06.856Z,21.80
2019-04-07T08:47:11.420Z,21.89
2019-04-07T08:48:08.971Z,22.07
2019-04-07T08:49:07.579Z,21.97
2019-04-07T08:50:07.277Z,21.62
2019-04-07T08:51:08.495Z,21.69
2019-04-07T08:52:09.771Z,21.89
2019-04-07T08:53:10.491Z,21.58
2019-04-07T08:54:07.252Z,21.54
2019-04-07T08:55:07.327Z,21.28
2019-04-07T08:56:08.709Z,21.19
2019-04-07T08:57:09.573Z,21.15
2019-04-07T08:58:06.758Z,21.05
2019-04-07T08:59:10.240Z,21.84
2019-04-07T09:00:06.699Z,21.94
2019-04-07T09:01:07.368Z,22.12
2019-04-07T09:02:07.506Z,22.19
2019-04-07T09:03:13.728Z,21.72
2019-04-07T09:04:07.729Z,21.65
2019-04-07T09:05:07.736Z,22.10
2019-04-07T09:06:07.282Z,22.07
2019-04-07T09:07:06.686Z,22.58
2019-04-07T09:08:07.405Z,22.77
2019-04-07T09:09:07.874Z,22.51
2019-04-07T09:10:07.283Z,22.80
2019-04-07T09:11:06.626Z,22.51
2019-04-07T09:12:07.126Z,22.55
2019-04-07T09:13:08.514Z,22.65
2019-04-07T09:14:08.005Z,22.81
2019-04-07T09:15:09.507Z,22.81
2019-04-07T09:16:08.178Z,22.91
2019-04-07T09:17:06.552Z,23.08
2019-04-07T09:18:06.587Z,23.49
2019-04-07T09:19:08.329Z,23.73
2019-04-07T09:20:10.168Z,24.11
2019-04-07T09:21:06.479Z,23.88
2019-04-07T09:22:07.408Z,23.39
2019-04-07T09:23:07.082Z,23.29
2019-04-07T09:24:07.151Z,23.01
2019-04-07T09:25:09.421Z,22.15
2019-04-07T09:26:10.151Z,21.96
2019-04-07T09:27:07.871Z,22.33
2019-04-07T09:28:06.489Z,22.40
2019-04-07T09:29:06.530Z,22.59
2019-04-07T09:30:09.004Z,22.83
2019-04-07T09:31:06.498Z,22.83
2019-04-07T09:32:06.603Z,22.74
2019-04-07T09:33:07.077Z,22.77
2019-04-07T09:34:07.046Z,22.63
2019-04-07T09:35:07.273Z,22.61
2019-04-07T09:36:06.924Z,22.98
2019-04-07T09:37:06.953Z,23.14
2019-04-07T09:38:08.006Z,23.23
2019-04-07T09:39:06.786Z,22.77
2019-04-07T09:40:06.816Z,22.99
2019-04-07T09:41:06.307Z,23.17
2019-04-07T09:42:06.573Z,23.21
2019-04-07T09:43:08.348Z,23.33
2019-04-07T09:44:06.908Z,23.11
2019-04-07T09:45:09.548Z,22.51
2019-04-07T09:46:09.328Z,22.49
2019-04-07T09:47:06.554Z,22.37
2019-04-07T09:48:06.449Z,22.28
2019-04-07T09:49:06.310Z,22.18
2019-04-07T09:50:06.738Z,22.62
2019-04-07T09:51:15.409Z,22.81
2019-04-07T09:52:10.367Z,22.65
2019-04-07T09:53:07.242Z,22.59
2019-04-07T09:54:06.379Z,22.86
2019-04-07T09:55:08.309Z,22.59
2019-04-07T09:56:08.813Z,22.76
2019-04-07T09:57:07.315Z,22.91
2019-04-07T09:58:09.183Z,22.33
2019-04-07T09:59:06.761Z,22.19
2019-04-07T10:00:07.585Z,22.83
2019-04-07T10:01:08.043Z,22.62
2019-04-07T10:02:06.682Z,22.34
2019-04-07T10:03:11.535Z,22.07
2019-04-07T10:04:07.740Z,22.16
2019-04-07T10:05:06.023Z,22.76
2019-04-07T10:06:09.901Z,23.45
2019-04-07T10:07:09.563Z,23.77
2019-04-07T10:08:07.106Z,23.67
2019-04-07T10:09:06.731Z,24.07
2019-04-07T10:10:12.460Z,23.95
2019-04-07T10:11:07.158Z,23.37
2019-04-07T10:12:06.419Z,23.29
2019-04-07T10:13:06.665Z,22.95
2019-04-07T10:14:06.365Z,22.40
2019-04-07T10:15:06.471Z,22.55
2019-04-07T10:16:08.874Z,22.93
2019-04-07T10:17:06.511Z,23.55
2019-04-07T10:18:06.288Z,24.11
2019-04-07T10:19:06.028Z,24.03
2019-04-07T10:20:07.006Z,23.74
2019-04-07T10:21:05.815Z,23.88
2019-04-07T10:22:06.199Z,23.96
2019-04-07T10:23:07.167Z,24.11
2019-04-07T10:24:06.385Z,24.28
2019-04-07T10:25:06.032Z,23.45
2019-04-07T10:26:06.080Z,23.44
2019-04-07T10:27:06.081Z,23.86
2019-04-07T10:28:10.654Z,24.11
2019-04-07T10:29:06.055Z,24.26
2019-04-07T10:30:06.794Z,24.07
2019-04-07T10:31:05.806Z,23.51
2019-04-07T10:32:06.809Z,23.86
2019-04-07T10:33:05.703Z,23.56
2019-04-07T10:34:06.262Z,23.73
2019-04-07T10:35:05.816Z,23.55
2019-04-07T10:36:06.048Z,23.28
2019-04-07T10:37:05.643Z,23.26
2019-04-07T10:38:05.753Z,22.76
2019-04-07T10:39:06.168Z,22.33
2019-04-07T10:40:16.812Z,22.23
2019-04-07T10:41:06.818Z,22.59
2019-04-07T10:42:05.648Z,22.56
2019-04-07T10:43:05.588Z,23.10
2019-04-07T10:44:05.664Z,23.02
2019-04-07T10:45:05.889Z,23.36
2019-04-07T10:46:05.814Z,23.28
2019-04-07T10:47:05.997Z,23.32
2019-04-07T10:48:05.840Z,23.14
2019-04-07T10:49:05.809Z,23.76
2019-04-07T10:50:08.501Z,23.99
2019-04-07T10:51:05.655Z,23.91
2019-04-07T10:52:05.684Z,23.76
2019-04-07T10:53:05.480Z,23.67
2019-04-07T10:54:05.788Z,23.86
2019-04-07T10:55:05.445Z,23.58
2019-04-07T10:56:05.612Z,23.36
2019-04-07T10:57:05.424Z,23.55
2019-04-07T10:58:05.571Z,23.16
2019-04-07T10:59:05.553Z,23.67
2019-04-07T11:00:05.815Z,23.54
2019-04-07T11:01:05.378Z,23.37
2019-04-07T11:02:05.796Z,24.06
2019-04-07T11:03:05.375Z,24.61
2019-04-07T11:04:06.063Z,24.78
2019-04-07T11:05:05.337Z,24.93
2019-04-07T11:06:05.406Z,24.79
2019-04-07T11:07:05.322Z,24.85
2019-04-07T11:08:06.088Z,24.79
2019-04-07T11:09:05.964Z,24.66
2019-04-07T11:10:05.333Z,24.82
2019-04-07T11:11:05.442Z,25.25
2019-04-07T11:12:05.342Z,25.04
2019-04-07T11:13:05.251Z,24.43
2019-04-07T11:14:05.826Z,24.63
2019-04-07T11:15:05.230Z,24.55
2019-04-07T11:16:12.665Z,24.50
2019-04-07T11:17:06.390Z,25.01
2019-04-07T11:18:07.640Z,25.11
2019-04-07T11:19:05.200Z,25.12
2019-04-07T11:20:05.194Z,25.59
2019-04-07T11:21:05.164Z,25.89
2019-04-07T11:22:05.654Z,25.48
2019-04-07T11:23:05.143Z,25.16
2019-04-07T11:24:05.463Z,24.82
2019-04-07T11:25:05.430Z,24.78
2019-04-07T11:26:05.379Z,25.19
2019-04-07T11:27:05.243Z,25.40
2019-04-07T11:28:05.353Z,25.55
2019-04-07T11:29:05.099Z,25.58
2019-04-07T11:30:05.197Z,25.01
2019-04-07T11:31:05.730Z,24.89
2019-04-07T11:32:05.506Z,25.46
2019-04-07T11:33:05.173Z,25.51
2019-04-07T11:34:05.500Z,25.33
2019-04-07T11:35:05.031Z,25.39
2019-04-07T11:36:05.936Z,25.12
2019-04-07T11:37:05.039Z,25.51
2019-04-07T11:38:05.762Z,25.70
2019-04-07T11:39:05.750Z,25.46
2019-04-07T11:40:05.028Z,25.25
2019-04-07T11:41:05.771Z,24.88
2019-04-07T11:42:06.021Z,24.99
2019-04-07T11:43:05.450Z,24.68
2019-04-07T11:44:05.381Z,24.56
2019-04-07T11:45:05.053Z,24.40
2019-04-07T11:46:05.694Z,24.65
2019-04-07T11:47:04.986Z,24.93
2019-04-07T11:48:05.563Z,25.07
2019-04-07T11:49:04.887Z,24.99
2019-04-07T11:50:04.983Z,25.41
2019-04-07T11:51:05.226Z,25.54
2019-04-07T11:52:04.903Z,25.44
2019-04-07T11:53:05.066Z,25.56
2019-04-07T11:54:05.199Z,26.13
2019-04-07T11:55:05.260Z,25.86
2019-04-07T11:56:08.806Z,25.78
2019-04-07T11:57:05.809Z,25.66
2019-04-07T11:58:13.438Z,25.76
2019-04-07T11:59:07.834Z,25.91
2019-04-07T12:00:04.755Z,25.52
2019-04-07T12:01:04.787Z,25.21
2019-04-07T12:02:07.613Z,25.09
2019-04-07T12:03:05.019Z,25.31
2019-04-07T12:04:05.831Z,25.49
2019-04-07T12:05:05.417Z,24.55
2019-04-07T12:06:04.706Z,24.41
2019-04-07T12:07:04.736Z,24.50
2019-04-07T12:08:05.025Z,24.92
2019-04-07T12:09:04.975Z,24.63
2019-04-07T12:10:05.119Z,24.25
2019-04-07T12:11:06.231Z,24.43
2019-04-07T12:12:04.812Z,24.96
2019-04-07T12:13:04.818Z,24.66
2019-04-07T12:14:05.181Z,24.56
2019-04-07T12:15:05.266Z,24.88
2019-04-07T12:16:04.660Z,25.31
2019-04-07T12:17:06.934Z,24.82
2019-04-07T12:18:07.367Z,24.89
2019-04-07T12:19:04.568Z,25.03
2019-04-07T12:20:05.344Z,24.82
2019-04-07T12:21:06.423Z,24.51
2019-04-07T12:22:08.742Z,24.51
2019-04-07T12:23:05.874Z,24.58
2019-04-07T12:24:04.772Z,24.78
2019-04-07T12:25:05.782Z,24.74
2019-04-07T12:26:06.345Z,25.16
2019-04-07T12:27:04.789Z,25.07
2019-04-07T12:28:05.391Z,25.16
2019-04-07T12:29:04.467Z,25.03
2019-04-07T12:30:04.446Z,24.61
2019-04-07T12:31:05.297Z,24.24
2019-04-07T12:32:05.122Z,24.40
2019-04-07T12:33:07.218Z,24.79
2019-04-07T12:34:05.011Z,24.89
2019-04-07T12:35:05.215Z,24.86
2019-04-07T12:36:05.162Z,25.29
2019-04-07T12:37:06.807Z,25.48
2019-04-07T12:38:05.232Z,25.66
2019-04-07T12:39:04.323Z,26.24
2019-04-07T12:40:04.399Z,26.36
2019-04-07T12:41:13.344Z,25.95
2019-04-07T12:42:07.095Z,26.04
2019-04-07T12:43:13.171Z,26.01
2019-04-07T12:44:04.531Z,25.77
2019-04-07T12:45:04.777Z,25.31
2019-04-07T12:46:05.523Z,25.37
2019-04-07T12:47:04.880Z,25.49
2019-04-07T12:48:04.716Z,25.43
2019-04-07T12:49:07.732Z,25.55
2019-04-07T12:50:05.105Z,26.08
2019-04-07T12:51:04.433Z,26.29
2019-04-07T12:52:04.402Z,26.78
2019-04-07T12:53:05.922Z,25.73
2019-04-07T12:54:07.327Z,25.46
2019-04-07T12:55:04.825Z,25.63
2019-04-07T12:56:04.815Z,26.23
2019-04-07T12:57:06.607Z,25.49
2019-04-07T12:58:04.928Z,25.04
2019-04-07T12:59:04.455Z,25.16
2019-04-07T13:00:04.828Z,25.52
2019-04-07T13:01:12.973Z,25.36